Hamersville, Ohio
Current Conditions -  °F | °C
As of 12:00 PM on Monday 24 Nov 2014 (Local Time) from KLUK Reporting Station
Overcast Overcast  
Wind Chill: 54°   Ceiling: 4500
Heat Index: 54°   Visibility: 10mi
Dew Point: 44°   Wind: 23mph
Humidity: 69%   Direction: 250°WSW
Pressure: 29.53"   Gusts: 45mph
Location:  38.92°N, 83.98°W
Report Text: KLUK 241700Z 25020G39KT 10SM FEW029 BKN045 OVC055 12/07 A2953 RMK AO2 PK WND 25035/1654 T01220067
Loading
Personal Weather Stations






























Interactive Weather Map New forecast layout! Learn more

10-Day Weather Forecast

Advertisements
Track Severe Weather on mobile